Terminal Aerodrome Forecast
Issued by NWS Paducah, KY

Home | Current Version | Previous Version | Text Only | Print | Product List | Glossary On
Versions: 1 2 3 4 5 6 7 8 9 10 11 12 13 14 15 16 17 18 19 20 21
698
FTUS43 KPAH 281720
TAFPAH
TAF
KPAH 281720Z 2818/2918 26010G18KT P6SM SCT250
     FM290000 VRB03KT P6SM SKC
     FM290700 VRB03KT P6SM SCT060 BKN120=

USA.gov is the U.S. government's official web portal to all federal, state and local government web resources and services.